createdAt,value
2023-04-01T00:01:14.863Z,35.33
2023-04-01T00:03:42.105Z,37.00
2023-04-01T00:06:11.110Z,27.45
2023-04-01T00:08:37.787Z,26.92
2023-04-01T00:11:04.343Z,33.67
2023-04-01T00:13:30.857Z,32.70
2023-04-01T00:15:57.734Z,36.45
2023-04-01T00:18:26.603Z,36.20
2023-04-01T00:20:53.835Z,36.95
2023-04-01T00:23:21.637Z,38.13
2023-04-01T00:25:50.566Z,36.30
2023-04-01T00:28:18.991Z,38.63
2023-04-01T00:30:45.656Z,32.22
2023-04-01T00:33:12.366Z,44.30
2023-04-01T00:35:39.498Z,35.67
2023-04-01T00:38:07.183Z,28.60
2023-04-01T00:40:37.487Z,34.95
2023-04-01T00:43:10.348Z,39.38
2023-04-01T00:45:42.972Z,41.08
2023-04-01T00:48:19.379Z,36.67
2023-04-01T00:50:51.833Z,25.20
2023-04-01T00:53:21.252Z,33.28
2023-04-01T00:55:55.265Z,28.77
2023-04-01T00:58:24.449Z,48.35
2023-04-01T01:00:52.432Z,34.00
2023-04-01T01:03:19.213Z,28.75
2023-04-01T01:06:04.311Z,38.75
2023-04-01T01:08:38.634Z,39.17
2023-04-01T01:11:09.705Z,32.45
2023-04-01T01:14:25.915Z,34.05
2023-04-01T01:17:27.157Z,27.48
2023-04-01T01:20:26.177Z,32.40
2023-04-01T01:23:22.140Z,32.92
2023-04-01T01:26:11.128Z,41.05
2023-04-01T01:28:46.824Z,45.75
2023-04-01T01:31:22.252Z,30.65
2023-04-01T01:33:48.879Z,44.47
2023-04-01T01:36:18.058Z,33.97
2023-04-01T01:38:46.216Z,32.60
2023-04-01T01:41:15.315Z,30.65
2023-04-01T01:43:45.138Z,42.65
2023-04-01T01:46:20.356Z,36.28
2023-04-01T01:48:48.548Z,34.00
2023-04-01T01:51:15.898Z,33.55
2023-04-01T01:53:42.438Z,39.97
2023-04-01T01:56:11.166Z,33.28
2023-04-01T01:58:46.155Z,40.63
2023-04-01T02:01:27.365Z,35.92
2023-04-01T02:03:55.555Z,39.10
2023-04-01T02:06:30.071Z,38.67
2023-04-01T02:11:37.539Z,30.92
2023-04-01T02:14:21.168Z,33.28
2023-04-01T02:17:12.080Z,37.13
2023-04-01T02:19:53.155Z,34.90
2023-04-01T02:22:24.940Z,34.33
2023-04-01T02:24:54.806Z,43.83
2023-04-01T02:27:22.118Z,37.17
2023-04-01T02:29:48.801Z,47.58
2023-04-01T02:32:15.842Z,29.45
2023-04-01T02:34:43.404Z,33.60
2023-04-01T02:37:11.481Z,33.17
2023-04-01T02:39:38.385Z,41.97
2023-04-01T02:42:05.549Z,37.53
2023-04-01T02:44:32.623Z,32.58
2023-04-01T02:46:59.262Z,35.78
2023-04-01T02:49:25.871Z,42.38
2023-04-01T02:51:52.938Z,43.63
2023-04-01T02:54:20.496Z,37.17
2023-04-01T02:56:47.165Z,39.00
2023-04-01T02:59:13.847Z,40.70
2023-04-01T03:01:40.735Z,33.20
2023-04-01T03:04:07.509Z,37.17
2023-04-01T03:06:34.639Z,28.23
2023-04-01T03:09:01.188Z,40.35
2023-04-01T03:11:27.902Z,36.38
2023-04-01T03:13:54.511Z,32.08
2023-04-01T03:16:21.156Z,41.47
2023-04-01T03:18:47.759Z,33.13
2023-04-01T03:21:20.394Z,36.55
2023-04-01T03:23:46.983Z,28.40
2023-04-01T03:26:14.359Z,32.88
2023-04-01T03:28:41.356Z,33.17
2023-04-01T03:31:08.165Z,32.58
2023-04-01T03:33:34.808Z,35.03
2023-04-01T03:36:01.564Z,34.00
2023-04-01T03:38:28.177Z,39.72
2023-04-01T03:40:54.900Z,41.15
2023-04-01T03:43:21.513Z,40.20
2023-04-01T03:45:49.913Z,33.10
2023-04-01T03:48:16.871Z,43.03
2023-04-01T03:50:43.952Z,40.30
2023-04-01T03:53:11.177Z,35.92
2023-04-01T03:55:38.552Z,40.58
2023-04-01T03:58:06.621Z,42.05
2023-04-01T04:00:33.450Z,51.22
2023-04-01T04:03:00.485Z,43.63
2023-04-01T04:05:28.114Z,36.53
2023-04-01T04:07:55.460Z,34.63
2023-04-01T04:10:23.987Z,43.72
2023-04-01T04:12:51.001Z,38.65
2023-04-01T04:15:17.813Z,33.97
2023-04-01T04:17:46.339Z,40.15
2023-04-01T04:20:13.830Z,34.50
2023-04-01T04:22:40.609Z,50.85
2023-04-01T04:25:08.076Z,27.90
2023-04-01T04:27:34.803Z,45.45
2023-04-01T04:30:01.384Z,33.80
2023-04-01T04:32:29.472Z,31.45
2023-04-01T04:34:56.629Z,35.58
2023-04-01T04:37:23.198Z,44.70
2023-04-01T04:39:49.782Z,31.38
2023-04-01T04:42:16.378Z,50.63
2023-04-01T04:44:42.912Z,38.13
2023-04-01T04:47:09.533Z,36.28
2023-04-01T04:49:36.143Z,23.73
2023-04-01T04:52:02.716Z,29.80
2023-04-01T04:54:30.504Z,30.42
2023-04-01T04:56:57.085Z,29.83
2023-04-01T04:59:23.764Z,38.97
2023-04-01T05:01:50.606Z,47.55
2023-04-01T05:04:17.269Z,39.65
2023-04-01T05:06:46.333Z,27.73
2023-04-01T05:09:13.020Z,34.92
2023-04-01T05:11:39.537Z,39.30
2023-04-01T05:14:06.146Z,32.53
2023-04-01T05:16:32.846Z,28.15
2023-04-01T05:18:59.398Z,39.35
2023-04-01T05:21:26.485Z,36.92
2023-04-01T05:23:53.070Z,30.23
2023-04-01T05:26:19.592Z,27.27
2023-04-01T05:28:46.572Z,42.55
2023-04-01T05:31:13.250Z,30.98
2023-04-01T05:33:40.411Z,40.28
2023-04-01T05:36:15.519Z,38.45
2023-04-01T05:38:43.422Z,33.30
2023-04-01T05:41:10.337Z,28.45
2023-04-01T05:43:37.835Z,36.15
2023-04-01T05:46:04.440Z,39.92
2023-04-01T05:48:31.101Z,29.88
2023-04-01T05:50:57.891Z,31.80
2023-04-01T05:53:24.531Z,36.17
2023-04-01T05:55:51.117Z,41.00
2023-04-01T05:58:18.049Z,31.67
2023-04-01T06:00:45.612Z,36.33
2023-04-01T06:03:13.266Z,26.02
2023-04-01T06:05:42.186Z,39.42
2023-04-01T06:08:19.625Z,31.60
2023-04-01T06:11:00.749Z,37.97
2023-04-01T06:13:56.065Z,33.88
2023-04-01T06:19:20.064Z,39.50
2023-04-01T06:21:49.700Z,31.63
2023-04-01T06:24:37.512Z,39.65
2023-04-01T06:27:13.162Z,32.78
2023-04-01T06:29:53.800Z,37.70
2023-04-01T06:32:31.512Z,45.47
2023-04-01T06:35:46.611Z,33.72
2023-04-01T06:38:29.698Z,32.22
2023-04-01T06:40:59.223Z,26.88
2023-04-01T06:43:50.044Z,36.70
2023-04-01T06:46:29.842Z,41.03
2023-04-01T06:49:07.644Z,43.30
2023-04-01T06:51:36.994Z,40.25
2023-04-01T06:54:26.142Z,29.60
2023-04-01T06:57:01.380Z,29.30
2023-04-01T06:59:35.606Z,35.75
2023-04-01T07:02:13.174Z,31.73
2023-04-01T07:04:48.064Z,28.40
2023-04-01T07:07:28.308Z,29.88
2023-04-01T07:10:02.388Z,28.70
2023-04-01T07:12:46.749Z,28.83
2023-04-01T07:15:20.408Z,32.03
2023-04-01T07:17:53.721Z,33.60
2023-04-01T07:20:32.781Z,37.08
2023-04-01T07:23:03.313Z,25.75
2023-04-01T07:25:44.621Z,24.60
2023-04-01T07:28:17.700Z,33.60
2023-04-01T07:31:10.763Z,43.45
2023-04-01T07:34:01.605Z,37.28
2023-04-01T07:36:40.010Z,33.38
2023-04-01T07:39:13.426Z,35.13
2023-04-01T07:42:02.840Z,31.00
2023-04-01T07:45:01.880Z,28.77
2023-04-01T07:47:46.898Z,22.58
2023-04-01T07:50:25.019Z,41.15
2023-04-01T07:53:14.552Z,26.30
2023-04-01T07:55:51.739Z,36.05
2023-04-01T07:58:18.616Z,24.55
2023-04-01T08:01:02.924Z,32.28
2023-04-01T08:04:23.294Z,34.60
2023-04-01T08:06:59.976Z,16.05
2023-04-01T08:09:30.410Z,39.03
2023-04-01T08:12:38.275Z,42.30
2023-04-01T08:15:14.118Z,33.10
2023-04-01T08:18:34.668Z,33.03
2023-04-01T08:21:05.381Z,33.67
2023-04-01T08:23:39.601Z,28.98
2023-04-01T08:26:14.143Z,34.72
2023-04-01T08:31:24.055Z,40.72
2023-04-01T08:33:55.208Z,26.20
2023-04-01T08:36:33.892Z,24.33
2023-04-01T08:39:40.682Z,30.83
2023-04-01T08:42:41.458Z,36.80
2023-04-01T08:45:46.505Z,28.00
2023-04-01T08:48:43.052Z,31.45
2023-04-01T08:51:21.457Z,25.35
2023-04-01T08:54:06.366Z,24.77
2023-04-01T08:57:05.064Z,36.45
2023-04-01T08:59:59.527Z,21.40
2023-04-01T09:03:07.819Z,18.35
2023-04-01T09:05:48.833Z,28.55
2023-04-01T09:08:44.614Z,22.95
2023-04-01T09:11:29.104Z,22.63
2023-04-01T09:14:04.963Z,20.83
2023-04-01T09:17:07.037Z,17.63
2023-04-01T09:19:33.608Z,18.95
2023-04-01T09:22:10.887Z,14.98
2023-04-01T09:24:57.588Z,16.13
2023-04-01T09:27:32.018Z,10.85
2023-04-01T09:33:21.658Z,12.88
2023-04-01T09:36:20.899Z,12.00
2023-04-01T09:38:59.700Z,9.90
2023-04-01T09:41:33.359Z,6.40
2023-04-01T09:44:02.716Z,9.13
2023-04-01T09:47:08.201Z,10.00
2023-04-01T09:52:26.266Z,7.45
2023-04-01T09:55:11.662Z,13.10
2023-04-01T09:58:06.429Z,12.93
2023-04-01T10:01:07.346Z,11.75
2023-04-01T10:04:01.550Z,14.20
2023-04-01T10:06:55.707Z,14.13
2023-04-01T10:09:46.775Z,10.27
2023-04-01T10:12:40.730Z,8.30
2023-04-01T10:15:10.121Z,12.93
2023-04-01T10:17:42.813Z,10.27
2023-04-01T10:20:23.542Z,13.45
2023-04-01T10:23:14.315Z,7.55
2023-04-01T10:25:52.830Z,9.55
2023-04-01T10:28:35.689Z,14.30
2023-04-01T10:31:23.411Z,7.97
2023-04-01T10:34:08.586Z,11.55
2023-04-01T10:36:41.248Z,9.57
2023-04-01T10:39:31.099Z,13.23
2023-04-01T10:42:15.929Z,9.25
2023-04-01T10:45:19.351Z,14.02
2023-04-01T10:48:05.225Z,12.82
2023-04-01T10:51:02.625Z,19.08
2023-04-01T10:54:02.541Z,15.30
2023-04-01T10:56:40.732Z,14.88
2023-04-01T10:59:29.149Z,15.13
2023-04-01T11:02:10.045Z,16.20
2023-04-01T11:05:29.540Z,10.80
2023-04-01T11:08:22.166Z,10.45
2023-04-01T11:10:58.826Z,17.63
2023-04-01T11:13:37.594Z,14.80
2023-04-01T11:16:35.823Z,15.93
2023-04-01T11:19:31.542Z,19.23
2023-04-01T11:22:13.512Z,13.73
2023-04-01T11:25:31.358Z,14.10
2023-04-01T11:28:18.817Z,14.63
2023-04-01T11:31:01.415Z,16.80
2023-04-01T11:33:53.994Z,17.30
2023-04-01T11:36:36.938Z,6.88
2023-04-01T11:39:25.156Z,15.32
2023-04-01T11:42:42.573Z,13.60
2023-04-01T11:45:09.721Z,14.07
2023-04-01T11:48:01.171Z,8.95
2023-04-01T11:50:50.665Z,14.30
2023-04-01T11:53:32.856Z,12.85
2023-04-01T11:56:14.397Z,5.20
2023-04-01T11:58:52.719Z,7.53
2023-04-01T12:01:25.403Z,5.03
2023-04-01T12:04:01.522Z,7.22
2023-04-01T12:06:37.080Z,5.80
2023-04-01T12:09:24.234Z,7.25
2023-04-01T12:12:17.362Z,7.70
2023-04-01T12:15:17.422Z,7.43
2023-04-01T12:18:07.019Z,7.13
2023-04-01T12:20:39.644Z,7.53
2023-04-01T12:23:34.897Z,8.25
2023-04-01T12:26:07.561Z,5.95
2023-04-01T12:29:11.232Z,9.80
2023-04-01T12:31:57.254Z,11.00
2023-04-01T12:34:40.067Z,10.70
2023-04-01T12:37:29.531Z,10.55
2023-04-01T12:40:43.744Z,8.70
2023-04-01T12:43:48.610Z,5.63
2023-04-01T12:46:36.543Z,7.97
2023-04-01T12:49:34.535Z,8.93
2023-04-01T12:52:15.896Z,6.18
2023-04-01T12:55:01.834Z,10.90
2023-04-01T12:58:13.657Z,10.55
2023-04-01T13:00:46.328Z,9.55
2023-04-01T13:03:33.115Z,4.90
2023-04-01T13:06:21.458Z,6.65
2023-04-01T13:09:09.837Z,12.00
2023-04-01T13:11:57.179Z,6.50
2023-04-01T13:14:31.806Z,8.00
2023-04-01T13:17:26.350Z,6.00
2023-04-01T13:20:06.529Z,7.80
2023-04-01T13:22:57.010Z,11.63
2023-04-01T13:25:41.873Z,4.45
2023-04-01T13:29:01.043Z,11.55
2023-04-01T13:31:59.240Z,7.20
2023-04-01T13:34:48.938Z,5.63
2023-04-01T13:37:29.430Z,8.98
2023-04-01T13:40:20.897Z,10.20
2023-04-01T13:42:59.561Z,4.43
2023-04-01T13:45:39.422Z,9.13
2023-04-01T13:48:27.441Z,8.35
2023-04-01T13:51:18.366Z,9.75
2023-04-01T13:53:47.888Z,8.88
2023-04-01T13:56:41.646Z,5.75
2023-04-01T13:59:29.245Z,5.18
2023-04-01T14:02:33.573Z,4.43
2023-04-01T14:05:44.930Z,11.52
2023-04-01T14:08:36.489Z,11.77
2023-04-01T14:11:34.354Z,6.65
2023-04-01T14:14:20.495Z,8.07
2023-04-01T14:17:02.646Z,10.38
2023-04-01T14:19:34.935Z,9.82
2023-04-01T14:22:34.733Z,4.80
2023-04-01T14:25:26.349Z,9.88
2023-04-01T14:27:55.623Z,10.75
2023-04-01T14:30:44.043Z,6.85
2023-04-01T14:33:49.196Z,9.98
2023-04-01T14:36:42.603Z,5.63
2023-04-01T14:39:27.639Z,7.47
2023-04-01T14:42:22.256Z,11.55
2023-04-01T14:45:22.679Z,10.18
2023-04-01T14:48:17.404Z,10.18
2023-04-01T14:50:51.922Z,8.80
2023-04-01T14:53:27.913Z,7.15
2023-04-01T14:55:56.381Z,8.27
2023-04-01T14:58:28.132Z,14.60
2023-04-01T15:01:07.075Z,11.00
2023-04-01T15:03:49.515Z,7.80
2023-04-01T15:06:53.787Z,11.60
2023-04-01T15:09:36.198Z,9.98
2023-04-01T15:12:17.611Z,5.32
2023-04-01T15:15:16.208Z,8.50
2023-04-01T15:18:15.227Z,4.70
2023-04-01T15:21:06.353Z,4.78
2023-04-01T15:23:42.236Z,9.30
2023-04-01T15:26:26.992Z,5.72
2023-04-01T15:29:02.458Z,9.38
2023-04-01T15:32:01.624Z,15.82
2023-04-01T15:34:28.550Z,14.20
2023-04-01T15:37:21.160Z,7.30
2023-04-01T15:40:12.566Z,8.15
2023-04-01T15:43:12.936Z,7.65
2023-04-01T15:46:17.902Z,10.07
2023-04-01T15:49:13.463Z,8.05
2023-04-01T15:51:57.480Z,4.65
2023-04-01T15:54:52.702Z,6.60
2023-04-01T15:57:40.599Z,9.73
2023-04-01T16:00:17.072Z,7.00
2023-04-01T16:03:09.964Z,6.95
2023-04-01T16:05:53.347Z,5.78
2023-04-01T16:08:44.168Z,7.53
2023-04-01T16:11:23.088Z,5.32
2023-04-01T16:14:11.526Z,4.28
2023-04-01T16:17:03.075Z,4.25
2023-04-01T16:19:42.208Z,4.57
2023-04-01T16:22:11.949Z,5.85
2023-04-01T16:24:52.123Z,6.80
2023-04-01T16:27:57.374Z,10.88
2023-04-01T16:30:34.617Z,13.07
2023-04-01T16:33:16.501Z,7.43
2023-04-01T16:35:43.179Z,3.38
2023-04-01T16:38:22.360Z,10.27
2023-04-01T16:41:04.595Z,7.18
2023-04-01T16:43:53.144Z,7.30
2023-04-01T16:46:29.720Z,5.47
2023-04-01T16:49:01.797Z,9.02
2023-04-01T16:52:05.418Z,9.02
2023-04-01T16:54:36.975Z,3.90
2023-04-01T16:57:10.482Z,11.27
2023-04-01T16:59:46.055Z,11.48
2023-04-01T17:02:15.595Z,8.32
2023-04-01T17:04:49.552Z,5.90
2023-04-01T17:07:40.920Z,4.63
2023-04-01T17:10:25.439Z,6.72
2023-04-01T17:13:23.486Z,9.18
2023-04-01T17:16:21.184Z,8.48
2023-04-01T17:19:12.624Z,7.40
2023-04-01T17:22:02.407Z,8.65
2023-04-01T17:24:34.681Z,8.02
2023-04-01T17:27:26.504Z,9.55
2023-04-01T17:30:19.245Z,6.28
2023-04-01T17:33:09.709Z,8.02
2023-04-01T17:35:58.396Z,6.50
2023-04-01T17:38:56.285Z,6.97
2023-04-01T17:41:36.690Z,9.55
2023-04-01T17:44:21.637Z,12.68
2023-04-01T17:49:55.444Z,5.97
2023-04-01T17:52:43.215Z,7.68
2023-04-01T17:55:42.141Z,6.90
2023-04-01T17:58:17.879Z,6.45
2023-04-01T18:01:06.104Z,5.78
2023-04-01T18:04:00.047Z,5.03
2023-04-01T18:06:54.354Z,8.25
2023-04-01T18:09:49.203Z,10.13
2023-04-01T18:12:32.884Z,6.53
2023-04-01T18:15:04.082Z,6.63
2023-04-01T18:17:39.416Z,13.55
2023-04-01T18:20:30.349Z,5.93
2023-04-01T18:23:07.279Z,8.32
2023-04-01T18:25:39.180Z,7.80
2023-04-01T18:28:50.935Z,8.07
2023-04-01T18:31:21.457Z,7.68
2023-04-01T18:33:59.461Z,9.90
2023-04-01T18:36:26.174Z,18.20
2023-04-01T18:39:08.573Z,15.48
2023-04-01T18:42:04.050Z,15.40
2023-04-01T18:44:30.576Z,9.00
2023-04-01T18:47:15.146Z,10.80
2023-04-01T18:49:56.530Z,12.65
2023-04-01T18:52:29.878Z,11.45
2023-04-01T18:55:05.799Z,9.73
2023-04-01T18:57:50.541Z,11.00
2023-04-01T19:00:34.403Z,5.20
2023-04-01T19:03:21.853Z,8.77
2023-04-01T19:05:52.706Z,8.60
2023-04-01T19:08:27.775Z,8.48
2023-04-01T19:11:35.375Z,8.65
2023-04-01T19:14:07.931Z,7.47
2023-04-01T19:17:05.205Z,7.82
2023-04-01T19:20:01.233Z,4.85
2023-04-01T19:22:46.497Z,10.40
2023-04-01T19:25:34.600Z,10.52
2023-04-01T19:28:27.102Z,12.68
2023-04-01T19:31:18.290Z,7.03
2023-04-01T19:33:54.018Z,7.15
2023-04-01T19:36:28.949Z,10.55
2023-04-01T19:39:24.074Z,8.80
2023-04-01T19:42:26.161Z,7.10
2023-04-01T19:44:55.598Z,8.75
2023-04-01T19:47:43.761Z,9.45
2023-04-01T19:50:36.642Z,15.80
2023-04-01T19:53:45.001Z,8.05
2023-04-01T19:56:22.692Z,9.95
2023-04-01T19:58:55.082Z,12.43
2023-04-01T20:01:43.683Z,10.70
2023-04-01T20:04:42.191Z,12.35
2023-04-01T20:07:17.278Z,10.25
2023-04-01T20:09:54.865Z,7.50
2023-04-01T20:12:43.589Z,15.13
2023-04-01T20:15:37.060Z,8.30
2023-04-01T20:18:13.501Z,7.78
2023-04-01T20:20:41.078Z,11.05
2023-04-01T20:23:51.205Z,7.57
2023-04-01T20:26:24.186Z,11.88
2023-04-01T20:29:07.165Z,14.63
2023-04-01T20:31:46.444Z,13.60
2023-04-01T20:34:27.853Z,7.57
2023-04-01T20:37:09.865Z,12.77
2023-04-01T20:40:11.629Z,10.43
2023-04-01T20:42:56.409Z,5.95
2023-04-01T20:45:22.958Z,11.38
2023-04-01T20:48:04.533Z,11.38
2023-04-01T20:50:43.607Z,9.77
2023-04-01T20:53:21.244Z,10.30
2023-04-01T20:55:47.754Z,16.38
2023-04-01T20:58:30.642Z,10.20
2023-04-01T21:01:06.383Z,12.63
2023-04-01T21:03:56.197Z,16.17
2023-04-01T21:06:35.146Z,10.15
2023-04-01T21:09:04.683Z,10.05
2023-04-01T21:11:34.570Z,9.52
2023-04-01T21:14:26.003Z,7.47
2023-04-01T21:17:04.638Z,14.98
2023-04-01T21:19:54.499Z,16.67
2023-04-01T21:22:58.111Z,11.32
2023-04-01T21:25:52.185Z,14.27
2023-04-01T21:28:43.007Z,13.98
2023-04-01T21:31:36.964Z,11.27
2023-04-01T21:34:31.382Z,10.98
2023-04-01T21:37:27.115Z,21.08
2023-04-01T21:40:11.854Z,14.93
2023-04-01T21:42:41.378Z,15.75
2023-04-01T21:45:17.285Z,13.50
2023-04-01T21:48:10.069Z,11.65
2023-04-01T21:50:36.538Z,15.60
2023-04-01T21:53:50.809Z,8.73
2023-04-01T21:56:26.798Z,14.45
2023-04-01T21:59:15.420Z,18.40
2023-04-01T22:01:41.945Z,17.92
2023-04-01T22:04:12.021Z,14.40
2023-04-01T22:07:01.715Z,12.32
2023-04-01T22:09:40.758Z,13.75
2023-04-01T22:12:19.215Z,14.10
2023-04-01T22:14:57.749Z,15.38
2023-04-01T22:17:52.948Z,12.25
2023-04-01T22:20:25.344Z,13.73
2023-04-01T22:23:01.011Z,12.63
2023-04-01T22:25:56.447Z,9.45
2023-04-01T22:28:41.776Z,8.95
2023-04-01T22:31:12.189Z,15.23
2023-04-01T22:33:41.423Z,10.80
2023-04-01T22:36:20.366Z,7.90
2023-04-01T22:38:59.093Z,14.55
2023-04-01T22:41:34.862Z,7.20
2023-04-01T22:44:01.666Z,9.27
2023-04-01T22:46:31.298Z,11.35
2023-04-01T22:49:23.475Z,7.03
2023-04-01T22:52:09.829Z,12.05
2023-04-01T22:55:16.587Z,11.43
2023-04-01T22:57:51.381Z,10.85
2023-04-01T23:00:26.955Z,7.30
2023-04-01T23:03:49.518Z,9.95
2023-04-01T23:06:28.733Z,9.45
2023-04-01T23:09:04.187Z,9.65
2023-04-01T23:11:36.832Z,12.80
2023-04-01T23:14:21.425Z,12.25
2023-04-01T23:17:08.829Z,11.95
2023-04-01T23:19:58.559Z,14.98
2023-04-01T23:22:56.153Z,8.90
2023-04-01T23:26:01.328Z,10.57
2023-04-01T23:28:45.267Z,12.70
2023-04-01T23:31:32.112Z,16.48
2023-04-01T23:34:23.773Z,9.90
2023-04-01T23:37:03.396Z,15.90
2023-04-01T23:39:34.481Z,16.75
2023-04-01T23:42:06.080Z,10.25
2023-04-01T23:44:34.559Z,11.35
2023-04-01T23:47:03.268Z,9.55
2023-04-01T23:49:36.639Z,18.20
2023-04-01T23:52:25.333Z,11.18
2023-04-01T23:55:02.759Z,16.30
2023-04-01T23:57:34.544Z,10.07
